sensor_id;sensor_type;location;lat;lon;timestamp;temperature;humidity
4795;DHT22;2411;47.060;15.064;2023-09-19T00:00:39;17.80;24.70
4795;DHT22;2411;47.060;15.064;2023-09-19T00:03:09;17.90;3.90
4795;DHT22;2411;47.060;15.064;2023-09-19T00:05:38;17.80;40.60
4795;DHT22;2411;47.060;15.064;2023-09-19T00:08:05;17.70;88.80
4795;DHT22;2411;47.060;15.064;2023-09-19T00:10:33;17.70;99.90
4795;DHT22;2411;47.060;15.064;2023-09-19T00:13:04;17.80;99.90
4795;DHT22;2411;47.060;15.064;2023-09-19T00:15:40;17.80;93.70
4795;DHT22;2411;47.060;15.064;2023-09-19T00:18:08;17.90;90.70
4795;DHT22;2411;47.060;15.064;2023-09-19T00:20:36;17.90;92.00
4795;DHT22;2411;47.060;15.064;2023-09-19T00:23:05;17.90;92.40
4795;DHT22;2411;47.060;15.064;2023-09-19T00:25:32;17.70;99.90
4795;DHT22;2411;47.060;15.064;2023-09-19T00:27:59;17.70;99.90
4795;DHT22;2411;47.060;15.064;2023-09-19T00:30:27;17.60;99.90
4795;DHT22;2411;47.060;15.064;2023-09-19T00:32:54;17.50;99.90
4795;DHT22;2411;47.060;15.064;2023-09-19T00:35:22;17.50;99.90
4795;DHT22;2411;47.060;15.064;2023-09-19T00:37:53;17.50;99.90
4795;DHT22;2411;47.060;15.064;2023-09-19T00:40:20;17.50;99.90
4795;DHT22;2411;47.060;15.064;2023-09-19T00:42:48;17.50;99.90
4795;DHT22;2411;47.060;15.064;2023-09-19T00:45:17;17.50;99.90
4795;DHT22;2411;47.060;15.064;2023-09-19T00:47:47;17.50;99.90
4795;DHT22;2411;47.060;15.064;2023-09-19T00:50:21;17.40;99.90
4795;DHT22;2411;47.060;15.064;2023-09-19T00:52:50;17.40;99.90
4795;DHT22;2411;47.060;15.064;2023-09-19T00:55:20;17.40;99.90
4795;DHT22;2411;47.060;15.064;2023-09-19T00:57:47;17.40;99.90
4795;DHT22;2411;47.060;15.064;2023-09-19T01:00:17;17.40;99.90
4795;DHT22;2411;47.060;15.064;2023-09-19T01:02:47;17.40;99.90
4795;DHT22;2411;47.060;15.064;2023-09-19T01:05:16;17.40;99.90
4795;DHT22;2411;47.060;15.064;2023-09-19T01:07:43;17.40;99.90
4795;DHT22;2411;47.060;15.064;2023-09-19T01:10:18;17.40;77.20
4795;DHT22;2411;47.060;15.064;2023-09-19T01:15:49;17.30;99.90
4795;DHT22;2411;47.060;15.064;2023-09-19T01:21:11;17.50;99.90
4795;DHT22;2411;47.060;15.064;2023-09-19T01:24:22;17.40;99.90
4795;DHT22;2411;47.060;15.064;2023-09-19T01:29:49;17.20;99.90
4795;DHT22;2411;47.060;15.064;2023-09-19T01:32:21;17.30;99.90
4795;DHT22;2411;47.060;15.064;2023-09-19T01:34:52;17.30;99.90
4795;DHT22;2411;47.060;15.064;2023-09-19T01:37:21;17.30;99.90
4795;DHT22;2411;47.060;15.064;2023-09-19T01:39:56;17.50;99.90
4795;DHT22;2411;47.060;15.064;2023-09-19T01:42:59;17.30;99.90
4795;DHT22;2411;47.060;15.064;2023-09-19T01:54:12;17.30;99.90
4795;DHT22;2411;47.060;15.064;2023-09-19T01:56:50;17.30;99.90
4795;DHT22;2411;47.060;15.064;2023-09-19T01:59:25;17.40;99.90
4795;DHT22;2411;47.060;15.064;2023-09-19T02:01:55;17.30;99.90
4795;DHT22;2411;47.060;15.064;2023-09-19T02:04:23;17.20;99.90
4795;DHT22;2411;47.060;15.064;2023-09-19T02:06:50;17.30;99.90
4795;DHT22;2411;47.060;15.064;2023-09-19T02:09:19;17.20;99.10
4795;DHT22;2411;47.060;15.064;2023-09-19T02:11:46;17.30;99.90
4795;DHT22;2411;47.060;15.064;2023-09-19T02:14:13;17.20;99.90
4795;DHT22;2411;47.060;15.064;2023-09-19T02:16:41;17.10;99.90
4795;DHT22;2411;47.060;15.064;2023-09-19T02:19:09;17.10;22.50
4795;DHT22;2411;47.060;15.064;2023-09-19T02:21:36;17.10;65.00
4795;DHT22;2411;47.060;15.064;2023-09-19T02:24:04;17.20;99.90
4795;DHT22;2411;47.060;15.064;2023-09-19T02:26:31;17.30;93.90
4795;DHT22;2411;47.060;15.064;2023-09-19T02:28:58;17.20;99.90
4795;DHT22;2411;47.060;15.064;2023-09-19T02:31:26;17.20;99.90
4795;DHT22;2411;47.060;15.064;2023-09-19T02:33:56;17.10;99.90
4795;DHT22;2411;47.060;15.064;2023-09-19T02:36:23;17.00;99.90
4795;DHT22;2411;47.060;15.064;2023-09-19T02:38:51;17.10;89.50
4795;DHT22;2411;47.060;15.064;2023-09-19T02:41:18;17.10;99.90
4795;DHT22;2411;47.060;15.064;2023-09-19T02:43:45;17.10;99.90
4795;DHT22;2411;47.060;15.064;2023-09-19T02:46:13;17.10;78.70
4795;DHT22;2411;47.060;15.064;2023-09-19T02:48:41;16.90;50.60
4795;DHT22;2411;47.060;15.064;2023-09-19T02:51:09;16.90;4.30
4795;DHT22;2411;47.060;15.064;2023-09-19T02:53:36;16.90;1.00
4795;DHT22;2411;47.060;15.064;2023-09-19T02:56:04;16.90;1.00
4795;DHT22;2411;47.060;15.064;2023-09-19T02:58:31;16.90;1.00
4795;DHT22;2411;47.060;15.064;2023-09-19T03:01:11;16.80;1.00
4795;DHT22;2411;47.060;15.064;2023-09-19T03:03:39;17.30;17.10
4795;DHT22;2411;47.060;15.064;2023-09-19T03:06:08;17.00;10.90
4795;DHT22;2411;47.060;15.064;2023-09-19T03:08:36;16.70;26.90
4795;DHT22;2411;47.060;15.064;2023-09-19T03:11:06;16.60;8.50
4795;DHT22;2411;47.060;15.064;2023-09-19T03:13:36;16.90;1.00
4795;DHT22;2411;47.060;15.064;2023-09-19T03:16:05;17.00;18.80
4795;DHT22;2411;47.060;15.064;2023-09-19T03:18:35;16.80;1.00
4795;DHT22;2411;47.060;15.064;2023-09-19T03:21:03;17.00;23.50
4795;DHT22;2411;47.060;15.064;2023-09-19T03:23:31;16.70;1.10
4795;DHT22;2411;47.060;15.064;2023-09-19T03:25:58;16.40;31.60
4795;DHT22;2411;47.060;15.064;2023-09-19T03:28:26;16.30;28.80
4795;DHT22;2411;47.060;15.064;2023-09-19T03:31:04;16.20;16.30
4795;DHT22;2411;47.060;15.064;2023-09-19T03:33:32;16.20;54.80
4795;DHT22;2411;47.060;15.064;2023-09-19T03:36:01;16.20;52.00
4795;DHT22;2411;47.060;15.064;2023-09-19T03:38:32;16.20;74.80
4795;DHT22;2411;47.060;15.064;2023-09-19T03:41:02;16.40;63.30
4795;DHT22;2411;47.060;15.064;2023-09-19T03:43:29;16.30;88.90
4795;DHT22;2411;47.060;15.064;2023-09-19T03:45:56;16.10;99.90
4795;DHT22;2411;47.060;15.064;2023-09-19T03:48:24;16.30;72.50
4795;DHT22;2411;47.060;15.064;2023-09-19T03:50:51;16.30;7.30
4795;DHT22;2411;47.060;15.064;2023-09-19T03:53:19;16.20;3.00
4795;DHT22;2411;47.060;15.064;2023-09-19T03:55:46;16.30;1.00
4795;DHT22;2411;47.060;15.064;2023-09-19T03:58:14;16.30;2.30
4795;DHT22;2411;47.060;15.064;2023-09-19T04:00:41;16.50;63.10
4795;DHT22;2411;47.060;15.064;2023-09-19T04:03:08;16.40;36.50
4795;DHT22;2411;47.060;15.064;2023-09-19T04:05:37;16.50;20.70
4795;DHT22;2411;47.060;15.064;2023-09-19T04:08:05;16.30;21.70
4795;DHT22;2411;47.060;15.064;2023-09-19T04:10:32;16.10;65.90
4795;DHT22;2411;47.060;15.064;2023-09-19T04:12:59;16.20;18.80
4795;DHT22;2411;47.060;15.064;2023-09-19T04:15:27;16.30;26.50
4795;DHT22;2411;47.060;15.064;2023-09-19T04:17:54;16.10;8.20
4795;DHT22;2411;47.060;15.064;2023-09-19T04:20:22;16.20;1.00
4795;DHT22;2411;47.060;15.064;2023-09-19T04:22:50;16.10;1.00
4795;DHT22;2411;47.060;15.064;2023-09-19T04:25:17;16.00;1.00
4795;DHT22;2411;47.060;15.064;2023-09-19T04:27:46;16.10;16.10
4795;DHT22;2411;47.060;15.064;2023-09-19T04:30:16;16.10;17.50
4795;DHT22;2411;47.060;15.064;2023-09-19T04:32:43;16.20;58.20
4795;DHT22;2411;47.060;15.064;2023-09-19T04:35:11;15.90;33.90
4795;DHT22;2411;47.060;15.064;2023-09-19T04:37:39;15.60;71.50
4795;DHT22;2411;47.060;15.064;2023-09-19T04:40:07;15.60;99.90
4795;DHT22;2411;47.060;15.064;2023-09-19T04:42:40;15.40;99.90
4795;DHT22;2411;47.060;15.064;2023-09-19T04:45:09;15.40;72.10
4795;DHT22;2411;47.060;15.064;2023-09-19T04:47:38;15.40;57.50
4795;DHT22;2411;47.060;15.064;2023-09-19T04:50:09;15.40;99.90
4795;DHT22;2411;47.060;15.064;2023-09-19T04:52:46;15.60;57.70
4795;DHT22;2411;47.060;15.064;2023-09-19T04:55:18;15.60;77.90
4795;DHT22;2411;47.060;15.064;2023-09-19T04:57:47;15.50;51.10
4795;DHT22;2411;47.060;15.064;2023-09-19T05:00:16;15.50;99.90
4795;DHT22;2411;47.060;15.064;2023-09-19T05:02:49;15.90;99.90
4795;DHT22;2411;47.060;15.064;2023-09-19T05:05:17;16.00;10.00
4795;DHT22;2411;47.060;15.064;2023-09-19T05:07:45;15.60;43.20
4795;DHT22;2411;47.060;15.064;2023-09-19T05:10:13;15.50;56.30
4795;DHT22;2411;47.060;15.064;2023-09-19T05:12:41;15.30;83.50
4795;DHT22;2411;47.060;15.064;2023-09-19T05:15:08;15.20;99.90
4795;DHT22;2411;47.060;15.064;2023-09-19T05:17:36;15.20;99.90
4795;DHT22;2411;47.060;15.064;2023-09-19T05:20:03;15.20;99.90
4795;DHT22;2411;47.060;15.064;2023-09-19T05:23:04;15.20;85.90
4795;DHT22;2411;47.060;15.064;2023-09-19T05:25:37;15.10;99.90
4795;DHT22;2411;47.060;15.064;2023-09-19T05:28:06;15.10;99.90
4795;DHT22;2411;47.060;15.064;2023-09-19T05:30:35;15.10;99.90
4795;DHT22;2411;47.060;15.064;2023-09-19T05:33:04;15.20;99.90
4795;DHT22;2411;47.060;15.064;2023-09-19T05:35:31;15.60;99.90
4795;DHT22;2411;47.060;15.064;2023-09-19T05:38:00;15.60;54.30
4795;DHT22;2411;47.060;15.064;2023-09-19T05:40:27;15.50;37.30
4795;DHT22;2411;47.060;15.064;2023-09-19T05:42:54;15.50;11.50
4795;DHT22;2411;47.060;15.064;2023-09-19T05:45:22;16.10;12.00
4795;DHT22;2411;47.060;15.064;2023-09-19T05:47:50;16.10;1.00
4795;DHT22;2411;47.060;15.064;2023-09-19T05:50:18;15.90;26.70
4795;DHT22;2411;47.060;15.064;2023-09-19T05:52:53;15.90;1.00
4795;DHT22;2411;47.060;15.064;2023-09-19T05:55:21;15.80;11.50
4795;DHT22;2411;47.060;15.064;2023-09-19T05:57:52;15.80;7.10
4795;DHT22;2411;47.060;15.064;2023-09-19T06:00:23;15.90;33.00
4795;DHT22;2411;47.060;15.064;2023-09-19T06:02:55;16.10;1.00
4795;DHT22;2411;47.060;15.064;2023-09-19T06:05:23;15.90;1.00
4795;DHT22;2411;47.060;15.064;2023-09-19T06:07:51;15.80;1.00
4795;DHT22;2411;47.060;15.064;2023-09-19T06:10:20;15.80;1.00
4795;DHT22;2411;47.060;15.064;2023-09-19T06:12:50;15.70;1.00
4795;DHT22;2411;47.060;15.064;2023-09-19T06:15:17;15.60;1.00
4795;DHT22;2411;47.060;15.064;2023-09-19T06:17:51;15.60;1.00
4795;DHT22;2411;47.060;15.064;2023-09-19T06:20:18;15.70;1.00
4795;DHT22;2411;47.060;15.064;2023-09-19T06:22:47;15.90;1.00
4795;DHT22;2411;47.060;15.064;2023-09-19T06:25:16;16.00;5.90
4795;DHT22;2411;47.060;15.064;2023-09-19T06:27:48;15.80;10.00
4795;DHT22;2411;47.060;15.064;2023-09-19T06:30:15;15.70;26.10
4795;DHT22;2411;47.060;15.064;2023-09-19T06:32:44;15.60;25.60
4795;DHT22;2411;47.060;15.064;2023-09-19T06:35:13;15.60;42.00
4795;DHT22;2411;47.060;15.064;2023-09-19T06:37:42;15.60;64.60
4795;DHT22;2411;47.060;15.064;2023-09-19T06:40:10;15.60;83.70
4795;DHT22;2411;47.060;15.064;2023-09-19T06:42:45;16.10;39.60
4795;DHT22;2411;47.060;15.064;2023-09-19T06:45:13;16.10;41.00
4795;DHT22;2411;47.060;15.064;2023-09-19T06:47:45;16.00;26.30
4795;DHT22;2411;47.060;15.064;2023-09-19T06:50:17;15.90;29.40
4795;DHT22;2411;47.060;15.064;2023-09-19T06:52:46;15.80;42.90
4795;DHT22;2411;47.060;15.064;2023-09-19T06:55:21;15.70;52.00
4795;DHT22;2411;47.060;15.064;2023-09-19T06:57:51;15.70;32.00
4795;DHT22;2411;47.060;15.064;2023-09-19T07:00:18;15.60;38.80
4795;DHT22;2411;47.060;15.064;2023-09-19T07:03:04;15.70;63.00
4795;DHT22;2411;47.060;15.064;2023-09-19T07:05:36;15.60;69.20
4795;DHT22;2411;47.060;15.064;2023-09-19T07:08:07;15.50;76.40
4795;DHT22;2411;47.060;15.064;2023-09-19T07:10:36;15.60;72.90
4795;DHT22;2411;47.060;15.064;2023-09-19T07:13:05;15.60;87.50
4795;DHT22;2411;47.060;15.064;2023-09-19T07:15:38;15.70;71.90
4795;DHT22;2411;47.060;15.064;2023-09-19T07:18:07;16.00;14.40
4795;DHT22;2411;47.060;15.064;2023-09-19T07:20:38;16.10;1.00
4795;DHT22;2411;47.060;15.064;2023-09-19T07:23:05;16.10;1.00
4795;DHT22;2411;47.060;15.064;2023-09-19T07:25:34;16.30;16.80
4795;DHT22;2411;47.060;15.064;2023-09-19T07:28:02;16.40;1.00
4795;DHT22;2411;47.060;15.064;2023-09-19T07:30:30;16.60;1.00
4795;DHT22;2411;47.060;15.064;2023-09-19T07:32:57;16.70;1.00
4795;DHT22;2411;47.060;15.064;2023-09-19T07:35:25;17.00;1.00
4795;DHT22;2411;47.060;15.064;2023-09-19T07:37:52;17.10;1.00
4795;DHT22;2411;47.060;15.064;2023-09-19T07:40:20;17.20;1.00
4795;DHT22;2411;47.060;15.064;2023-09-19T07:42:48;17.30;1.00
4795;DHT22;2411;47.060;15.064;2023-09-19T07:45:16;17.40;1.00
4795;DHT22;2411;47.060;15.064;2023-09-19T07:47:47;17.50;1.00
4795;DHT22;2411;47.060;15.064;2023-09-19T07:50:18;17.70;1.00
4795;DHT22;2411;47.060;15.064;2023-09-19T07:52:47;17.70;1.00
4795;DHT22;2411;47.060;15.064;2023-09-19T07:55:15;17.90;1.00
4795;DHT22;2411;47.060;15.064;2023-09-19T07:57:44;17.90;1.00
4795;DHT22;2411;47.060;15.064;2023-09-19T08:00:11;17.90;1.00
4795;DHT22;2411;47.060;15.064;2023-09-19T08:02:39;18.00;1.00
4795;DHT22;2411;47.060;15.064;2023-09-19T08:05:11;18.20;1.00
4795;DHT22;2411;47.060;15.064;2023-09-19T08:07:41;18.30;1.00
4795;DHT22;2411;47.060;15.064;2023-09-19T08:10:10;18.40;1.00
4795;DHT22;2411;47.060;15.064;2023-09-19T08:12:41;18.40;1.00
4795;DHT22;2411;47.060;15.064;2023-09-19T08:15:19;18.50;1.00
4795;DHT22;2411;47.060;15.064;2023-09-19T08:17:47;18.60;1.00
4795;DHT22;2411;47.060;15.064;2023-09-19T08:20:15;18.80;1.00
4795;DHT22;2411;47.060;15.064;2023-09-19T08:22:51;18.90;1.00
4795;DHT22;2411;47.060;15.064;2023-09-19T08:25:24;18.90;1.00
4795;DHT22;2411;47.060;15.064;2023-09-19T08:27:52;19.00;1.00
4795;DHT22;2411;47.060;15.064;2023-09-19T08:30:20;19.20;1.00
4795;DHT22;2411;47.060;15.064;2023-09-19T08:33:00;19.30;1.00
4795;DHT22;2411;47.060;15.064;2023-09-19T08:35:28;19.40;1.00
4795;DHT22;2411;47.060;15.064;2023-09-19T08:37:56;19.40;1.00
4795;DHT22;2411;47.060;15.064;2023-09-19T08:40:24;19.60;1.00
4795;DHT22;2411;47.060;15.064;2023-09-19T08:42:56;19.70;1.00
4795;DHT22;2411;47.060;15.064;2023-09-19T08:45:25;19.70;1.00
4795;DHT22;2411;47.060;15.064;2023-09-19T08:53:55;19.80;1.00
4795;DHT22;2411;47.060;15.064;2023-09-19T08:56:26;20.00;1.00
4795;DHT22;2411;47.060;15.064;2023-09-19T08:59:03;19.90;1.00
4795;DHT22;2411;47.060;15.064;2023-09-19T09:01:31;20.00;1.00
4795;DHT22;2411;47.060;15.064;2023-09-19T09:04:02;20.10;1.00
4795;DHT22;2411;47.060;15.064;2023-09-19T09:06:29;20.20;1.00
4795;DHT22;2411;47.060;15.064;2023-09-19T09:09:00;20.20;1.00
4795;DHT22;2411;47.060;15.064;2023-09-19T09:11:27;20.20;1.00
4795;DHT22;2411;47.060;15.064;2023-09-19T09:13:55;20.40;1.00
4795;DHT22;2411;47.060;15.064;2023-09-19T09:16:25;20.50;1.00
4795;DHT22;2411;47.060;15.064;2023-09-19T09:18:53;20.60;1.00
4795;DHT22;2411;47.060;15.064;2023-09-19T09:21:23;20.70;1.00
4795;DHT22;2411;47.060;15.064;2023-09-19T09:23:52;20.70;1.00
4795;DHT22;2411;47.060;15.064;2023-09-19T09:29:06;20.60;1.00
4795;DHT22;2411;47.060;15.064;2023-09-19T09:31:33;20.90;1.00
4795;DHT22;2411;47.060;15.064;2023-09-19T09:34:01;21.00;1.00
4795;DHT22;2411;47.060;15.064;2023-09-19T09:36:36;21.10;1.00
4795;DHT22;2411;47.060;15.064;2023-09-19T09:39:04;21.30;1.00
4795;DHT22;2411;47.060;15.064;2023-09-19T09:41:52;21.40;1.00
4795;DHT22;2411;47.060;15.064;2023-09-19T09:44:19;21.60;1.00
4795;DHT22;2411;47.060;15.064;2023-09-19T09:46:48;21.80;1.00
4795;DHT22;2411;47.060;15.064;2023-09-19T09:49:26;21.80;1.00
4795;DHT22;2411;47.060;15.064;2023-09-19T09:52:05;22.00;1.00
4795;DHT22;2411;47.060;15.064;2023-09-19T09:55:00;22.00;1.00
4795;DHT22;2411;47.060;15.064;2023-09-19T09:57:32;22.00;1.00
4795;DHT22;2411;47.060;15.064;2023-09-19T10:00:01;22.30;1.00
4795;DHT22;2411;47.060;15.064;2023-09-19T10:02:55;22.50;1.00
4795;DHT22;2411;47.060;15.064;2023-09-19T10:05:23;22.80;1.00
4795;DHT22;2411;47.060;15.064;2023-09-19T10:07:56;22.90;1.00
4795;DHT22;2411;47.060;15.064;2023-09-19T10:10:39;22.80;1.00
4795;DHT22;2411;47.060;15.064;2023-09-19T10:13:11;22.60;1.00
4795;DHT22;2411;47.060;15.064;2023-09-19T10:15:48;22.50;1.00
4795;DHT22;2411;47.060;15.064;2023-09-19T10:18:24;22.60;1.00
4795;DHT22;2411;47.060;15.064;2023-09-19T10:20:52;22.50;1.00
4795;DHT22;2411;47.060;15.064;2023-09-19T10:23:20;22.40;1.00
4795;DHT22;2411;47.060;15.064;2023-09-19T10:25:52;22.30;1.00
4795;DHT22;2411;47.060;15.064;2023-09-19T10:28:21;22.40;1.00
4795;DHT22;2411;47.060;15.064;2023-09-19T10:30:52;22.20;1.00
4795;DHT22;2411;47.060;15.064;2023-09-19T10:33:24;22.10;1.00
4795;DHT22;2411;47.060;15.064;2023-09-19T10:35:59;22.00;1.00
4795;DHT22;2411;47.060;15.064;2023-09-19T10:38:28;22.10;1.00
4795;DHT22;2411;47.060;15.064;2023-09-19T10:40:57;22.40;1.00
4795;DHT22;2411;47.060;15.064;2023-09-19T10:43:32;22.50;1.00
4795;DHT22;2411;47.060;15.064;2023-09-19T10:46:09;22.60;1.00
4795;DHT22;2411;47.060;15.064;2023-09-19T10:48:40;23.00;1.00
4795;DHT22;2411;47.060;15.064;2023-09-19T10:51:22;23.30;1.00
4795;DHT22;2411;47.060;15.064;2023-09-19T10:54:12;23.50;1.00
4795;DHT22;2411;47.060;15.064;2023-09-19T10:56:47;23.60;1.00
4795;DHT22;2411;47.060;15.064;2023-09-19T10:59:17;23.80;1.00
4795;DHT22;2411;47.060;15.064;2023-09-19T11:01:48;23.50;1.00
4795;DHT22;2411;47.060;15.064;2023-09-19T11:07:16;23.60;1.00
4795;DHT22;2411;47.060;15.064;2023-09-19T11:14:59;23.50;1.00
4795;DHT22;2411;47.060;15.064;2023-09-19T11:17:36;23.60;1.00
4795;DHT22;2411;47.060;15.064;2023-09-19T11:31:40;24.30;1.00
4795;DHT22;2411;47.060;15.064;2023-09-19T11:33:31;24.10;1.00
4795;DHT22;2411;47.060;15.064;2023-09-19T11:36:11;24.30;1.00
4795;DHT22;2411;47.060;15.064;2023-09-19T11:46:54;23.90;1.00
4795;DHT22;2411;47.060;15.064;2023-09-19T11:49:32;24.00;1.00
4795;DHT22;2411;47.060;15.064;2023-09-19T11:52:02;23.80;1.00
4795;DHT22;2411;47.060;15.064;2023-09-19T11:54:32;23.60;1.00
4795;DHT22;2411;47.060;15.064;2023-09-19T11:57:00;23.60;1.00
4795;DHT22;2411;47.060;15.064;2023-09-19T11:59:29;23.70;1.00
4795;DHT22;2411;47.060;15.064;2023-09-19T12:02:00;23.90;1.00
4795;DHT22;2411;47.060;15.064;2023-09-19T12:04:35;24.10;1.00
4795;DHT22;2411;47.060;15.064;2023-09-19T12:07:08;24.30;1.00
4795;DHT22;2411;47.060;15.064;2023-09-19T12:09:40;24.50;1.00
4795;DHT22;2411;47.060;15.064;2023-09-19T12:12:11;24.30;1.00
4795;DHT22;2411;47.060;15.064;2023-09-19T12:14:48;24.20;1.00
4795;DHT22;2411;47.060;15.064;2023-09-19T12:17:18;23.90;1.00
4795;DHT22;2411;47.060;15.064;2023-09-19T12:19:54;23.90;1.00
4795;DHT22;2411;47.060;15.064;2023-09-19T12:22:22;23.70;1.00
4795;DHT22;2411;47.060;15.064;2023-09-19T12:24:50;23.60;1.00
4795;DHT22;2411;47.060;15.064;2023-09-19T12:27:18;23.50;1.00
4795;DHT22;2411;47.060;15.064;2023-09-19T12:29:48;23.60;1.00
4795;DHT22;2411;47.060;15.064;2023-09-19T12:32:16;23.60;1.00
4795;DHT22;2411;47.060;15.064;2023-09-19T12:34:53;23.90;1.00
4795;DHT22;2411;47.060;15.064;2023-09-19T12:37:22;24.10;1.00
4795;DHT22;2411;47.060;15.064;2023-09-19T12:39:51;24.40;1.00
4795;DHT22;2411;47.060;15.064;2023-09-19T12:42:25;24.10;1.00
4795;DHT22;2411;47.060;15.064;2023-09-19T12:44:56;24.20;1.00
4795;DHT22;2411;47.060;15.064;2023-09-19T12:47:24;23.80;1.00
4795;DHT22;2411;47.060;15.064;2023-09-19T12:52:42;23.60;1.00
4795;DHT22;2411;47.060;15.064;2023-09-19T13:00:41;23.00;1.00
4795;DHT22;2411;47.060;15.064;2023-09-19T13:03:25;23.00;1.00
4795;DHT22;2411;47.060;15.064;2023-09-19T13:06:00;23.10;1.00
4795;DHT22;2411;47.060;15.064;2023-09-19T13:08:35;23.50;1.00
4795;DHT22;2411;47.060;15.064;2023-09-19T13:11:12;23.40;1.00
4795;DHT22;2411;47.060;15.064;2023-09-19T13:16:16;23.40;1.00
4795;DHT22;2411;47.060;15.064;2023-09-19T13:18:53;23.30;1.00
4795;DHT22;2411;47.060;15.064;2023-09-19T13:21:29;23.10;1.00
4795;DHT22;2411;47.060;15.064;2023-09-19T13:24:23;23.00;1.00
4795;DHT22;2411;47.060;15.064;2023-09-19T13:26:56;22.80;1.00
4795;DHT22;2411;47.060;15.064;2023-09-19T13:29:23;22.60;1.00
4795;DHT22;2411;47.060;15.064;2023-09-19T13:31:52;22.40;1.00
4795;DHT22;2411;47.060;15.064;2023-09-19T13:34:22;22.40;1.00
4795;DHT22;2411;47.060;15.064;2023-09-19T13:36:50;22.60;1.00
4795;DHT22;2411;47.060;15.064;2023-09-19T13:39:17;22.80;1.00
4795;DHT22;2411;47.060;15.064;2023-09-19T13:41:45;22.90;1.00
4795;DHT22;2411;47.060;15.064;2023-09-19T13:44:14;23.10;1.00
4795;DHT22;2411;47.060;15.064;2023-09-19T13:46:41;23.30;1.00
4795;DHT22;2411;47.060;15.064;2023-09-19T13:49:13;23.50;1.00
4795;DHT22;2411;47.060;15.064;2023-09-19T13:51:40;23.60;1.00
4795;DHT22;2411;47.060;15.064;2023-09-19T13:54:11;23.80;1.00
4795;DHT22;2411;47.060;15.064;2023-09-19T13:56:41;23.90;1.00
4795;DHT22;2411;47.060;15.064;2023-09-19T13:59:08;23.90;1.00
4795;DHT22;2411;47.060;15.064;2023-09-19T14:01:36;23.70;1.00
4795;DHT22;2411;47.060;15.064;2023-09-19T14:04:03;23.60;1.00
4795;DHT22;2411;47.060;15.064;2023-09-19T14:06:30;23.40;1.00
4795;DHT22;2411;47.060;15.064;2023-09-19T14:08:58;23.10;1.00
4795;DHT22;2411;47.060;15.064;2023-09-19T14:11:25;23.00;1.00
4795;DHT22;2411;47.060;15.064;2023-09-19T14:13:53;22.90;1.00
4795;DHT22;2411;47.060;15.064;2023-09-19T14:16:23;22.70;1.00
4795;DHT22;2411;47.060;15.064;2023-09-19T14:18:52;22.40;1.00
4795;DHT22;2411;47.060;15.064;2023-09-19T14:21:19;22.40;1.00
4795;DHT22;2411;47.060;15.064;2023-09-19T14:23:46;22.40;1.00
4795;DHT22;2411;47.060;15.064;2023-09-19T14:26:15;22.40;1.00
4795;DHT22;2411;47.060;15.064;2023-09-19T14:28:45;22.30;1.00
4795;DHT22;2411;47.060;15.064;2023-09-19T14:31:12;22.40;1.00
4795;DHT22;2411;47.060;15.064;2023-09-19T14:33:40;22.50;1.00
4795;DHT22;2411;47.060;15.064;2023-09-19T14:36:08;22.60;1.00
4795;DHT22;2411;47.060;15.064;2023-09-19T14:38:38;22.80;1.00
4795;DHT22;2411;47.060;15.064;2023-09-19T14:41:06;22.90;1.00
4795;DHT22;2411;47.060;15.064;2023-09-19T14:43:34;22.90;1.00
4795;DHT22;2411;47.060;15.064;2023-09-19T14:46:05;22.80;1.00
4795;DHT22;2411;47.060;15.064;2023-09-19T14:48:34;23.00;1.00
4795;DHT22;2411;47.060;15.064;2023-09-19T14:51:03;23.00;1.00
4795;DHT22;2411;47.060;15.064;2023-09-19T14:53:31;23.00;1.00
4795;DHT22;2411;47.060;15.064;2023-09-19T14:56:03;23.00;1.00
4795;DHT22;2411;47.060;15.064;2023-09-19T14:58:31;23.00;1.00
4795;DHT22;2411;47.060;15.064;2023-09-19T15:01:16;23.00;1.00
4795;DHT22;2411;47.060;15.064;2023-09-19T15:03:44;22.70;1.00
4795;DHT22;2411;47.060;15.064;2023-09-19T15:06:13;22.70;1.00
4795;DHT22;2411;47.060;15.064;2023-09-19T15:08:45;22.50;1.00
4795;DHT22;2411;47.060;15.064;2023-09-19T15:11:19;22.50;1.00
4795;DHT22;2411;47.060;15.064;2023-09-19T15:13:52;22.50;1.00
4795;DHT22;2411;47.060;15.064;2023-09-19T15:16:20;22.30;1.00
4795;DHT22;2411;47.060;15.064;2023-09-19T15:18:47;22.20;1.00
4795;DHT22;2411;47.060;15.064;2023-09-19T15:21:15;22.20;1.00
4795;DHT22;2411;47.060;15.064;2023-09-19T15:23:43;22.30;1.00
4795;DHT22;2411;47.060;15.064;2023-09-19T15:26:12;22.30;1.00
4795;DHT22;2411;47.060;15.064;2023-09-19T15:28:40;22.20;1.00
4795;DHT22;2411;47.060;15.064;2023-09-19T15:31:10;22.10;1.00
4795;DHT22;2411;47.060;15.064;2023-09-19T15:33:38;22.10;1.00
4795;DHT22;2411;47.060;15.064;2023-09-19T15:36:10;22.10;1.00
4795;DHT22;2411;47.060;15.064;2023-09-19T15:39:00;22.10;1.00
4795;DHT22;2411;47.060;15.064;2023-09-19T15:41:31;22.00;1.00
4795;DHT22;2411;47.060;15.064;2023-09-19T15:44:00;21.80;1.00
4795;DHT22;2411;47.060;15.064;2023-09-19T15:46:30;21.70;1.00
4795;DHT22;2411;47.060;15.064;2023-09-19T15:48:58;21.60;1.00
4795;DHT22;2411;47.060;15.064;2023-09-19T15:51:25;21.40;1.00
4795;DHT22;2411;47.060;15.064;2023-09-19T15:53:54;21.30;1.00
4795;DHT22;2411;47.060;15.064;2023-09-19T15:56:23;21.20;1.00
4795;DHT22;2411;47.060;15.064;2023-09-19T15:58:52;21.10;1.00
4795;DHT22;2411;47.060;15.064;2023-09-19T16:01:21;21.00;1.00
4795;DHT22;2411;47.060;15.064;2023-09-19T16:03:50;20.70;1.00
4795;DHT22;2411;47.060;15.064;2023-09-19T16:06:23;20.60;1.00
4795;DHT22;2411;47.060;15.064;2023-09-19T16:08:53;20.50;1.00
4795;DHT22;2411;47.060;15.064;2023-09-19T16:11:20;20.40;1.00
4795;DHT22;2411;47.060;15.064;2023-09-19T16:13:50;20.40;1.00
4795;DHT22;2411;47.060;15.064;2023-09-19T16:16:18;20.30;1.00
4795;DHT22;2411;47.060;15.064;2023-09-19T16:19:02;20.40;1.00
4795;DHT22;2411;47.060;15.064;2023-09-19T16:21:31;20.30;1.00
4795;DHT22;2411;47.060;15.064;2023-09-19T16:23:59;20.30;1.00
4795;DHT22;2411;47.060;15.064;2023-09-19T16:26:27;20.20;1.00
4795;DHT22;2411;47.060;15.064;2023-09-19T16:28:57;20.20;1.00
4795;DHT22;2411;47.060;15.064;2023-09-19T16:31:31;20.20;1.00
4795;DHT22;2411;47.060;15.064;2023-09-19T16:34:00;20.20;1.00
4795;DHT22;2411;47.060;15.064;2023-09-19T16:36:28;20.30;1.00
4795;DHT22;2411;47.060;15.064;2023-09-19T16:38:55;20.30;1.00
4795;DHT22;2411;47.060;15.064;2023-09-19T16:41:23;20.30;1.00
4795;DHT22;2411;47.060;15.064;2023-09-19T16:43:50;20.40;1.00
4795;DHT22;2411;47.060;15.064;2023-09-19T16:46:18;20.20;1.00
4795;DHT22;2411;47.060;15.064;2023-09-19T16:48:47;20.10;1.00
4795;DHT22;2411;47.060;15.064;2023-09-19T16:51:30;20.00;1.00
4795;DHT22;2411;47.060;15.064;2023-09-19T16:53:57;19.80;1.00
4795;DHT22;2411;47.060;15.064;2023-09-19T16:56:25;19.60;1.00
4795;DHT22;2411;47.060;15.064;2023-09-19T16:58:53;19.50;1.00
4795;DHT22;2411;47.060;15.064;2023-09-19T17:01:20;19.50;1.00
4795;DHT22;2411;47.060;15.064;2023-09-19T17:03:52;19.40;1.00
4795;DHT22;2411;47.060;15.064;2023-09-19T17:06:19;19.30;1.00
4795;DHT22;2411;47.060;15.064;2023-09-19T17:08:51;19.10;1.00
4795;DHT22;2411;47.060;15.064;2023-09-19T17:11:18;19.10;1.00
4795;DHT22;2411;47.060;15.064;2023-09-19T17:13:50;19.10;1.00
4795;DHT22;2411;47.060;15.064;2023-09-19T17:16:19;19.10;1.00
4795;DHT22;2411;47.060;15.064;2023-09-19T17:18:55;19.10;1.00
4795;DHT22;2411;47.060;15.064;2023-09-19T17:21:24;19.10;1.00